EFKE/KEM METAR and TAF weather

Enter ICAO airport designator
Station Type Date Time Source
EFKE METAR 2021/03/01 04:20 UTC NOAA

EFKE 010420Z AUTO 24012KT CAVOK 02/M00 Q1005


Station Type Date Time Source
EFKE Decoded METAR 2021/03/01 04:20 UTC NOAA

Kemi, Finland (EFKE) 65-47N 024-35E
Feb 28, 2021 - 11:20 PM EST / 2021.03.01 0420 UTC
Wind: from the WSW (240 degrees) at 14 MPH (12 KT):0
Visibility: greater than 7 mile(s):0
Temperature: 35 F (2 C)
Windchill: 26 F (-3 C):1
Dew Point: 32 F (0 C)
Relative Humidity: 86%
Pressure (altimeter): 29.68 in. Hg (1005 hPa)
ob: EFKE 010420Z AUTO 24012KT CAVOK 02/M00 Q1005
cycle: 4

Station Type Date Time Source
EFKE TAF 2015/01/12 15:42 UTC NOAA

TAF EFKE 121433Z 1215/1312 03006KT CAVOK
BECMG 1300/1302 9999 BKN015
FM130400 07008KT 9999 SCT014 BKN018
TEMPO 1304/1312 7000 -SN

Example: see airport list